createdAt,value
2023-05-02T00:04:14.710Z,1.70
2023-05-02T00:09:17.513Z,1.63
2023-05-02T00:14:33.080Z,1.75
2023-05-02T00:19:31.769Z,1.65
2023-05-02T00:24:30.424Z,1.30
2023-05-02T00:29:29.102Z,1.73
2023-05-02T00:34:32.184Z,2.22
2023-05-02T00:39:30.942Z,1.95
2023-05-02T00:44:30.066Z,2.08
2023-05-02T00:49:29.221Z,1.85
2023-05-02T00:54:29.924Z,2.13
2023-05-02T00:59:29.551Z,2.20
2023-05-02T01:04:40.538Z,1.90
2023-05-02T01:09:53.673Z,2.58
2023-05-02T01:14:56.792Z,2.03
2023-05-02T01:20:00.056Z,1.55
2023-05-02T01:25:10.336Z,2.15
2023-05-02T01:30:13.425Z,2.85
2023-05-02T01:35:12.791Z,3.13
2023-05-02T01:40:13.380Z,2.83
2023-05-02T01:45:15.300Z,1.80
2023-05-02T01:50:17.950Z,2.80
2023-05-02T01:55:18.835Z,3.00
2023-05-02T02:00:20.852Z,2.80
2023-05-02T02:05:23.688Z,2.83
2023-05-02T02:10:24.203Z,2.90
2023-05-02T02:15:29.249Z,2.35
2023-05-02T02:20:29.590Z,2.80
2023-05-02T02:25:28.809Z,2.50
2023-05-02T02:30:28.989Z,2.80
2023-05-02T02:35:32.822Z,5.78
2023-05-02T02:40:36.143Z,3.80
2023-05-02T02:45:44.845Z,4.82
2023-05-02T02:50:53.881Z,4.80
2023-05-02T02:55:59.432Z,4.53
2023-05-02T03:01:02.776Z,3.40
2023-05-02T03:06:02.005Z,3.20
2023-05-02T03:11:01.096Z,4.88
2023-05-02T03:16:40.490Z,4.75
2023-05-02T03:21:46.238Z,4.15
2023-05-02T03:26:50.252Z,3.45
2023-05-02T03:31:55.090Z,4.25
2023-05-02T03:36:56.736Z,5.07
2023-05-02T03:41:55.457Z,3.92
2023-05-02T03:46:56.220Z,7.28
2023-05-02T03:51:57.429Z,5.60
2023-05-02T03:57:01.803Z,8.35
2023-05-02T04:02:03.004Z,7.07
2023-05-02T04:07:22.398Z,9.35
2023-05-02T04:12:28.735Z,18.38
2023-05-02T04:17:31.153Z,19.88
2023-05-02T04:22:31.491Z,9.50
2023-05-02T04:27:35.179Z,11.57
2023-05-02T04:32:35.084Z,8.95
2023-05-02T04:37:38.151Z,6.20
2023-05-02T04:42:37.628Z,7.88
2023-05-02T04:47:52.340Z,9.38
2023-05-02T04:52:52.757Z,5.97
2023-05-02T04:57:52.863Z,10.27
2023-05-02T05:02:52.389Z,11.77
2023-05-02T05:07:52.682Z,10.55
2023-05-02T05:12:53.604Z,11.52
2023-05-02T05:17:53.218Z,7.82
2023-05-02T05:22:53.665Z,13.05
2023-05-02T05:27:55.334Z,13.50
2023-05-02T05:32:54.949Z,12.73
2023-05-02T05:37:55.150Z,8.75
2023-05-02T05:42:54.009Z,7.85
2023-05-02T05:47:58.263Z,7.22
2023-05-02T05:53:01.502Z,7.45
2023-05-02T05:58:00.454Z,9.02
2023-05-02T06:02:59.372Z,8.73
2023-05-02T06:08:05.201Z,5.97
2023-05-02T06:13:06.402Z,8.45
2023-05-02T06:18:08.701Z,6.40
2023-05-02T06:23:09.066Z,6.90
2023-05-02T06:28:09.581Z,6.13
2023-05-02T06:33:08.464Z,9.30
2023-05-02T06:38:08.538Z,5.25
2023-05-02T06:43:07.428Z,7.28
2023-05-02T06:48:06.585Z,4.28
2023-05-02T06:53:06.018Z,4.07
2023-05-02T06:58:06.123Z,3.30
2023-05-02T07:03:05.426Z,4.60
2023-05-02T07:08:05.864Z,3.45
2023-05-02T07:13:06.068Z,3.63
2023-05-02T07:18:05.245Z,3.00
2023-05-02T07:23:04.033Z,3.40
2023-05-02T07:28:02.835Z,6.03
2023-05-02T07:33:03.173Z,2.40
2023-05-02T07:38:01.985Z,3.20
2023-05-02T07:43:02.876Z,3.15
2023-05-02T07:48:04.041Z,4.13
2023-05-02T07:53:03.510Z,2.60
2023-05-02T07:58:02.419Z,1.77
2023-05-02T08:03:02.732Z,1.77
2023-05-02T08:08:02.069Z,4.53
2023-05-02T08:13:00.837Z,2.40
2023-05-02T08:17:59.962Z,2.38
2023-05-02T08:23:00.605Z,2.58
2023-05-02T08:27:59.460Z,2.28
2023-05-02T08:32:58.245Z,2.38
2023-05-02T08:37:57.175Z,1.92
2023-05-02T08:42:57.579Z,2.10
2023-05-02T08:47:58.088Z,4.07
2023-05-02T08:52:58.818Z,3.13
2023-05-02T08:57:59.699Z,2.43
2023-05-02T09:03:07.843Z,3.77
2023-05-02T09:08:07.007Z,3.25
2023-05-02T09:13:38.012Z,1.80
2023-05-02T09:18:37.790Z,2.65
2023-05-02T09:23:38.339Z,2.13
2023-05-02T09:28:43.276Z,1.40
2023-05-02T09:33:42.549Z,2.30
2023-05-02T09:38:44.677Z,1.77
2023-05-02T09:43:45.337Z,1.92
2023-05-02T09:48:54.755Z,1.60
2023-05-02T09:53:53.998Z,1.73
2023-05-02T09:59:13.749Z,1.90
2023-05-02T10:04:16.571Z,1.30
2023-05-02T10:09:20.807Z,1.80
2023-05-02T10:14:23.105Z,2.30
2023-05-02T10:19:30.341Z,1.50
2023-05-02T10:24:30.020Z,2.72
2023-05-02T10:29:31.040Z,1.95
2023-05-02T10:34:33.332Z,1.83
2023-05-02T10:39:33.757Z,1.48
2023-05-02T10:44:37.751Z,2.55
2023-05-02T10:49:51.292Z,1.90
2023-05-02T10:54:52.221Z,1.80
2023-05-02T10:59:52.327Z,2.53
2023-05-02T11:05:02.066Z,1.75
2023-05-02T11:10:29.327Z,2.15
2023-05-02T11:16:00.226Z,1.60
2023-05-02T11:21:27.564Z,1.95
2023-05-02T11:26:26.682Z,2.22
2023-05-02T11:32:04.125Z,1.25
2023-05-02T11:37:12.557Z,2.00
2023-05-02T11:42:11.286Z,1.73
2023-05-02T11:47:10.556Z,3.00
2023-05-02T11:52:10.997Z,2.10
2023-05-02T11:57:09.855Z,1.25
2023-05-02T12:02:08.802Z,2.28
2023-05-02T12:12:08.114Z,1.80
2023-05-02T12:17:06.946Z,1.60
2023-05-02T12:22:07.890Z,1.38
2023-05-02T12:27:12.527Z,1.40
2023-05-02T12:32:11.547Z,3.05
2023-05-02T12:37:11.891Z,1.52
2023-05-02T12:42:12.999Z,1.98
2023-05-02T12:47:13.216Z,1.30
2023-05-02T12:52:11.926Z,1.67
2023-05-02T12:57:11.969Z,1.40
2023-05-02T13:02:10.685Z,1.92
2023-05-02T13:07:09.436Z,1.50
2023-05-02T13:12:08.547Z,1.70
2023-05-02T13:17:09.980Z,1.80
2023-05-02T13:22:08.876Z,1.30
2023-05-02T13:27:07.522Z,1.35
2023-05-02T13:32:06.308Z,2.00
2023-05-02T13:37:06.502Z,1.15
2023-05-02T13:42:06.492Z,1.25
2023-05-02T13:47:05.236Z,1.70
2023-05-02T13:52:04.448Z,1.38
2023-05-02T13:57:05.621Z,1.63
2023-05-02T14:02:04.840Z,1.50
2023-05-02T14:07:04.317Z,1.52
2023-05-02T14:12:08.403Z,1.35
2023-05-02T14:17:07.091Z,1.95
2023-05-02T14:22:05.996Z,1.70
2023-05-02T14:27:06.890Z,2.05
2023-05-02T14:32:07.318Z,2.97
2023-05-02T14:37:06.196Z,1.63
2023-05-02T14:42:08.916Z,1.85
2023-05-02T14:47:09.163Z,2.00
2023-05-02T14:52:10.177Z,1.75
2023-05-02T14:57:09.122Z,1.92
2023-05-02T15:02:09.279Z,2.20
2023-05-02T15:07:08.481Z,1.63
2023-05-02T15:17:08.653Z,1.83
2023-05-02T15:22:11.632Z,2.25
2023-05-02T15:27:11.311Z,1.38
2023-05-02T15:32:10.122Z,1.58
2023-05-02T15:37:10.272Z,1.47
2023-05-02T15:42:09.017Z,2.10
2023-05-02T15:47:08.540Z,1.57
2023-05-02T15:52:08.000Z,1.75
2023-05-02T15:57:08.232Z,2.65
2023-05-02T16:07:06.246Z,2.40
2023-05-02T16:12:07.104Z,4.28
2023-05-02T16:17:08.316Z,2.20
2023-05-02T16:22:07.061Z,1.38
2023-05-02T16:27:05.797Z,1.40
2023-05-02T16:32:04.509Z,1.95
2023-05-02T16:37:05.124Z,1.45
2023-05-02T16:42:03.894Z,1.42
2023-05-02T16:47:02.801Z,1.52
2023-05-02T16:52:01.562Z,1.83
2023-05-02T16:57:03.268Z,2.55
2023-05-02T17:02:02.463Z,1.50
2023-05-02T17:07:01.510Z,1.88
2023-05-02T17:12:02.946Z,2.40
2023-05-02T17:17:02.214Z,2.22
2023-05-02T17:22:01.633Z,3.38
2023-05-02T17:27:02.914Z,3.53
2023-05-02T17:32:01.980Z,1.33
2023-05-02T17:37:00.777Z,1.48
2023-05-02T17:41:59.606Z,2.35
2023-05-02T17:47:00.082Z,1.80
2023-05-02T17:51:59.007Z,1.80
2023-05-02T17:56:58.203Z,2.55
2023-05-02T18:01:57.398Z,1.60
2023-05-02T18:06:57.616Z,1.83
2023-05-02T18:11:57.071Z,1.60
2023-05-02T18:16:56.500Z,1.48
2023-05-02T18:21:55.155Z,1.55
2023-05-02T18:26:55.444Z,1.60
2023-05-02T18:31:54.371Z,1.80
2023-05-02T18:36:53.080Z,1.92
2023-05-02T18:41:51.714Z,1.75
2023-05-02T18:46:52.009Z,2.30
2023-05-02T18:51:50.832Z,1.92
2023-05-02T18:56:49.580Z,2.17
2023-05-02T19:01:49.314Z,2.58
2023-05-02T19:06:49.501Z,1.90
2023-05-02T19:11:48.294Z,2.05
2023-05-02T19:16:47.148Z,2.13
2023-05-02T19:21:50.772Z,1.70
2023-05-02T19:26:49.777Z,2.13
2023-05-02T19:31:48.741Z,1.60
2023-05-02T19:36:47.493Z,2.10
2023-05-02T19:41:50.389Z,2.10
2023-05-02T19:46:49.336Z,1.70
2023-05-02T19:51:49.374Z,1.75
2023-05-02T19:56:49.594Z,1.65
2023-05-02T20:01:48.720Z,2.08
2023-05-02T20:06:47.478Z,1.60
2023-05-02T20:11:46.172Z,1.80
2023-05-02T20:16:47.037Z,2.55
2023-05-02T20:21:45.825Z,2.03
2023-05-02T20:26:44.518Z,1.60
2023-05-02T20:31:43.517Z,1.65
2023-05-02T20:36:43.733Z,1.60
2023-05-02T20:41:42.474Z,1.40
2023-05-02T20:46:41.287Z,1.60
2023-05-02T20:51:40.083Z,1.70
2023-05-02T20:56:40.897Z,1.60
2023-05-02T21:01:39.888Z,2.00
2023-05-02T21:06:38.885Z,1.65
2023-05-02T21:11:37.624Z,1.42
2023-05-02T21:16:37.897Z,1.98
2023-05-02T21:21:36.559Z,1.75
2023-05-02T21:26:35.326Z,1.70
2023-05-02T21:31:34.252Z,1.88
2023-05-02T21:36:34.370Z,1.63
2023-05-02T21:41:33.068Z,1.52
2023-05-02T21:46:31.806Z,1.55
2023-05-02T21:51:30.749Z,1.40
2023-05-02T21:56:30.857Z,1.88
2023-05-02T22:01:29.709Z,1.52
2023-05-02T22:06:28.711Z,2.10
2023-05-02T22:11:31.523Z,1.85
2023-05-02T22:21:29.028Z,1.55
2023-05-02T22:26:27.800Z,1.70
2023-05-02T22:31:27.988Z,1.30
2023-05-02T22:36:27.847Z,1.83
2023-05-02T22:41:26.536Z,1.17
2023-05-02T22:46:25.287Z,1.73
2023-05-02T22:51:25.726Z,1.50
2023-05-02T22:56:24.638Z,1.50
2023-05-02T23:01:23.489Z,1.63
2023-05-02T23:06:22.289Z,2.20
2023-05-02T23:11:22.489Z,1.40
2023-05-02T23:16:21.344Z,1.60
2023-05-02T23:21:20.137Z,1.55
2023-05-02T23:26:18.947Z,1.58
2023-05-02T23:31:19.100Z,1.50
2023-05-02T23:36:18.152Z,1.67
2023-05-02T23:41:16.819Z,1.63
2023-05-02T23:46:15.521Z,1.98
2023-05-02T23:51:15.577Z,1.77
2023-05-02T23:56:14.328Z,2.10
